createdAt,value
2022-11-24T00:00:42.325Z,77.15
2022-11-24T00:03:12.224Z,77.50
2022-11-24T00:05:42.120Z,77.56
2022-11-24T00:08:12.562Z,77.41
2022-11-24T00:10:43.411Z,77.33
2022-11-24T00:13:13.437Z,77.55
2022-11-24T00:15:43.338Z,77.48
2022-11-24T00:18:13.840Z,77.38
2022-11-24T00:20:43.812Z,77.56
2022-11-24T00:23:13.609Z,77.70
2022-11-24T00:25:43.620Z,77.63
2022-11-24T00:28:13.476Z,77.97
2022-11-24T00:30:43.771Z,77.65
2022-11-24T00:33:13.812Z,77.86
2022-11-24T00:35:43.678Z,77.74
2022-11-24T00:38:13.524Z,77.80
2022-11-24T00:40:43.596Z,77.84
2022-11-24T00:43:13.454Z,78.14
2022-11-24T00:45:44.844Z,78.12
2022-11-24T00:48:14.977Z,78.01
2022-11-24T00:50:44.869Z,78.12
2022-11-24T00:53:14.709Z,78.29
2022-11-24T00:55:44.542Z,78.34
2022-11-24T00:58:14.678Z,78.21
2022-11-24T01:00:44.531Z,77.78
2022-11-24T01:03:18.990Z,78.24
2022-11-24T01:05:49.182Z,77.84
2022-11-24T01:08:19.381Z,78.28
2022-11-24T01:10:49.471Z,78.13
2022-11-24T01:13:19.320Z,78.26
2022-11-24T01:15:49.416Z,78.07
2022-11-24T01:18:19.223Z,78.07
2022-11-24T01:20:49.057Z,78.15
2022-11-24T01:23:18.881Z,78.18
2022-11-24T01:25:48.692Z,78.34
2022-11-24T01:28:18.784Z,78.31
2022-11-24T01:30:49.649Z,78.21
2022-11-24T01:33:31.938Z,78.36
2022-11-24T01:36:02.362Z,78.37
2022-11-24T01:38:32.658Z,78.94
2022-11-24T01:41:14.602Z,78.71
2022-11-24T01:43:46.481Z,78.55
2022-11-24T01:46:21.983Z,78.42
2022-11-24T01:49:05.657Z,78.44
2022-11-24T01:51:39.126Z,78.71
2022-11-24T01:54:15.385Z,79.07
2022-11-24T01:56:51.895Z,78.84
2022-11-24T01:59:26.866Z,79.15
2022-11-24T02:01:58.650Z,79.04
2022-11-24T02:04:34.415Z,79.33
2022-11-24T02:07:07.992Z,79.41
2022-11-24T02:10:02.300Z,79.38
2022-11-24T02:12:32.527Z,79.63
2022-11-24T02:15:02.758Z,79.26
2022-11-24T02:17:32.847Z,78.82
2022-11-24T02:20:07.181Z,79.06
2022-11-24T02:22:59.598Z,79.11
2022-11-24T02:25:43.013Z,79.24
2022-11-24T02:28:17.909Z,79.51
2022-11-24T02:30:48.312Z,79.57
2022-11-24T02:33:19.215Z,79.59
2022-11-24T02:35:49.184Z,79.45
2022-11-24T02:38:19.089Z,79.53
2022-11-24T02:40:52.219Z,79.68
2022-11-24T02:43:25.532Z,79.29
2022-11-24T02:45:55.400Z,79.44
2022-11-24T02:48:25.294Z,79.48
2022-11-24T02:50:55.204Z,79.15
2022-11-24T02:53:25.169Z,79.17
2022-11-24T02:55:55.372Z,79.25
2022-11-24T02:58:25.444Z,79.50
2022-11-24T03:00:56.609Z,79.14
2022-11-24T03:03:26.650Z,79.32
2022-11-24T03:05:57.772Z,79.00
2022-11-24T03:08:27.482Z,79.20
2022-11-24T03:10:57.587Z,79.37
2022-11-24T03:13:27.429Z,79.34
2022-11-24T03:15:57.428Z,79.60
2022-11-24T03:18:27.350Z,79.49
2022-11-24T03:21:02.700Z,79.48
2022-11-24T03:23:32.780Z,78.98
2022-11-24T03:26:17.375Z,79.13
2022-11-24T03:28:47.547Z,79.04
2022-11-24T03:31:19.285Z,78.90
2022-11-24T03:33:49.375Z,79.10
2022-11-24T03:36:19.279Z,79.27
2022-11-24T03:38:49.175Z,79.19
2022-11-24T03:41:19.238Z,79.08
2022-11-24T03:43:49.098Z,78.93
2022-11-24T03:46:19.214Z,78.78
2022-11-24T03:48:49.328Z,78.96
2022-11-24T03:51:19.123Z,79.22
2022-11-24T03:53:49.030Z,78.61
2022-11-24T03:56:19.180Z,78.95
2022-11-24T03:58:49.040Z,78.93
2022-11-24T04:01:19.003Z,78.85
2022-11-24T04:03:48.887Z,79.15
2022-11-24T04:06:18.759Z,78.55
2022-11-24T04:08:48.663Z,78.55
2022-11-24T04:11:38.057Z,78.66
2022-11-24T04:14:13.228Z,78.58
2022-11-24T04:16:43.977Z,78.29
2022-11-24T04:19:14.423Z,78.35
2022-11-24T04:21:44.658Z,78.04
2022-11-24T04:24:14.959Z,77.78
2022-11-24T04:26:45.140Z,77.82
2022-11-24T04:29:15.333Z,77.84
2022-11-24T04:31:45.551Z,78.16
2022-11-24T04:34:15.793Z,78.08
2022-11-24T04:36:45.792Z,77.75
2022-11-24T04:39:24.790Z,77.76
2022-11-24T04:41:57.819Z,77.55
2022-11-24T04:44:28.041Z,77.42
2022-11-24T04:46:58.344Z,77.49
2022-11-24T04:49:28.552Z,77.84
2022-11-24T04:51:58.908Z,77.46
2022-11-24T04:54:29.166Z,77.63
2022-11-24T04:56:59.366Z,77.44
2022-11-24T04:59:29.663Z,77.26
2022-11-24T05:02:00.012Z,77.32
2022-11-24T05:04:30.297Z,77.04
2022-11-24T05:07:00.535Z,77.15
2022-11-24T05:09:54.899Z,77.18
2022-11-24T05:12:22.229Z,76.88
2022-11-24T05:14:54.184Z,77.16
2022-11-24T05:17:24.414Z,77.16
2022-11-24T05:19:54.599Z,77.25
2022-11-24T05:22:24.924Z,77.06
2022-11-24T05:24:55.176Z,77.13
2022-11-24T05:27:25.780Z,77.25
2022-11-24T05:29:56.140Z,76.92
2022-11-24T05:32:26.730Z,76.99
2022-11-24T05:34:57.083Z,77.18
2022-11-24T05:37:27.913Z,77.15
2022-11-24T05:39:58.132Z,77.06
2022-11-24T05:42:47.672Z,76.50
2022-11-24T05:45:21.509Z,76.75
2022-11-24T05:47:53.702Z,76.74
2022-11-24T05:50:25.317Z,77.13
2022-11-24T05:52:55.644Z,76.59
2022-11-24T05:55:25.832Z,76.82
2022-11-24T05:58:01.608Z,76.90
2022-11-24T06:00:33.719Z,76.38
2022-11-24T06:03:05.046Z,76.46
2022-11-24T06:05:35.533Z,76.63
2022-11-24T06:08:06.056Z,76.73
2022-11-24T06:10:36.359Z,76.15
2022-11-24T06:13:10.267Z,76.06
2022-11-24T06:15:42.526Z,76.17
2022-11-24T06:18:12.977Z,76.20
2022-11-24T06:20:49.107Z,76.06
2022-11-24T06:23:33.379Z,76.10
2022-11-24T06:26:04.233Z,75.98
2022-11-24T06:28:34.834Z,76.17
2022-11-24T06:31:06.787Z,75.84
2022-11-24T06:33:39.551Z,76.15
2022-11-24T06:36:15.190Z,75.98
2022-11-24T06:38:45.542Z,75.76
2022-11-24T06:41:17.975Z,76.01
2022-11-24T06:43:49.785Z,76.10
2022-11-24T06:46:20.129Z,75.99
2022-11-24T06:48:50.696Z,75.70
2022-11-24T06:51:21.261Z,76.17
2022-11-24T06:53:51.580Z,76.07
2022-11-24T06:56:23.168Z,75.97
2022-11-24T06:58:55.281Z,75.98
2022-11-24T07:01:28.264Z,76.52
2022-11-24T07:03:59.623Z,76.00
2022-11-24T07:06:30.691Z,76.24
2022-11-24T07:09:00.899Z,76.12
2022-11-24T07:11:31.272Z,76.30
2022-11-24T07:14:03.262Z,75.85
2022-11-24T07:16:33.859Z,75.69
2022-11-24T07:19:05.041Z,76.04
2022-11-24T07:21:35.475Z,75.69
2022-11-24T07:24:06.471Z,75.63
2022-11-24T07:26:39.443Z,75.92
2022-11-24T07:29:09.648Z,75.62
2022-11-24T07:31:40.120Z,75.36
2022-11-24T07:34:10.394Z,75.24
2022-11-24T07:36:40.638Z,75.91
2022-11-24T07:39:10.841Z,75.82
2022-11-24T07:41:41.162Z,75.30
2022-11-24T07:44:11.420Z,74.92
2022-11-24T07:46:41.725Z,75.44
2022-11-24T07:49:11.961Z,75.78
2022-11-24T07:51:42.054Z,75.63
2022-11-24T07:54:12.556Z,76.13
2022-11-24T07:56:42.780Z,75.36
2022-11-24T07:59:12.936Z,75.07
2022-11-24T08:01:43.201Z,75.40
2022-11-24T08:04:13.411Z,75.42
2022-11-24T08:06:47.299Z,75.70
2022-11-24T08:09:17.930Z,75.32
2022-11-24T08:11:48.153Z,74.98
2022-11-24T08:14:18.390Z,74.82
2022-11-24T08:16:48.654Z,74.60
2022-11-24T08:19:18.845Z,75.39
2022-11-24T08:21:48.872Z,75.89
2022-11-24T08:24:19.312Z,74.95
2022-11-24T08:26:49.593Z,74.68
2022-11-24T08:29:19.765Z,75.30
2022-11-24T08:31:49.944Z,75.26
2022-11-24T08:34:20.138Z,75.03
2022-11-24T08:36:50.293Z,75.78
2022-11-24T08:39:21.300Z,75.71
2022-11-24T08:41:51.076Z,74.98
2022-11-24T08:44:21.152Z,75.26
2022-11-24T08:46:52.432Z,75.07
2022-11-24T08:49:23.772Z,75.41
2022-11-24T08:51:54.179Z,75.20
2022-11-24T08:54:25.178Z,74.56
2022-11-24T08:56:55.454Z,74.42
2022-11-24T08:59:25.788Z,75.08
2022-11-24T09:01:56.012Z,75.35
2022-11-24T09:04:26.316Z,74.92
2022-11-24T09:06:56.631Z,75.10
2022-11-24T09:09:26.850Z,75.27
2022-11-24T09:11:56.897Z,74.89
2022-11-24T09:14:27.010Z,75.63
2022-11-24T09:16:57.056Z,75.72
2022-11-24T09:19:27.203Z,75.71
2022-11-24T09:21:57.789Z,75.16
2022-11-24T09:24:28.511Z,75.40
2022-11-24T09:26:59.232Z,75.07
2022-11-24T09:29:29.410Z,75.52
2022-11-24T09:32:03.616Z,74.85
2022-11-24T09:34:37.027Z,74.77
2022-11-24T09:37:07.276Z,74.90
2022-11-24T09:39:37.511Z,74.95
2022-11-24T09:42:22.390Z,74.79
2022-11-24T09:44:55.405Z,75.04
2022-11-24T09:47:31.453Z,75.22
2022-11-24T09:50:14.196Z,75.02
2022-11-24T09:52:56.502Z,74.60
2022-11-24T09:55:29.661Z,75.14
2022-11-24T09:58:37.772Z,75.11
2022-11-24T10:01:17.501Z,75.31
2022-11-24T10:03:54.077Z,74.83
2022-11-24T10:06:41.439Z,74.98
2022-11-24T10:09:22.499Z,74.74
2022-11-24T10:12:24.591Z,74.71
2022-11-24T10:15:22.897Z,75.16
2022-11-24T10:17:52.988Z,75.19
2022-11-24T10:20:43.718Z,75.01
2022-11-24T10:23:25.728Z,75.09
2022-11-24T10:26:15.141Z,75.09
2022-11-24T10:28:54.786Z,74.73
2022-11-24T10:31:35.025Z,74.99
2022-11-24T10:34:20.480Z,74.82
2022-11-24T10:37:14.716Z,74.87
2022-11-24T10:39:59.877Z,74.84
2022-11-24T10:42:41.385Z,75.21
2022-11-24T10:45:24.976Z,74.67
2022-11-24T10:47:55.188Z,75.00
2022-11-24T10:50:35.134Z,75.04
2022-11-24T10:53:18.450Z,75.33
2022-11-24T10:55:58.069Z,74.93
2022-11-24T10:58:39.855Z,75.24
2022-11-24T11:01:16.217Z,74.59
2022-11-24T11:04:01.742Z,74.16
2022-11-24T11:06:33.843Z,73.95
2022-11-24T11:09:09.718Z,73.34
2022-11-24T11:11:44.744Z,72.76
2022-11-24T11:14:15.497Z,72.97
2022-11-24T11:16:57.905Z,73.30
2022-11-24T11:20:01.568Z,73.64
2022-11-24T11:22:40.462Z,73.11
2022-11-24T11:25:13.675Z,73.70
2022-11-24T11:27:44.407Z,73.42
2022-11-24T11:36:21.205Z,73.75
2022-11-24T11:38:51.441Z,74.15
2022-11-24T11:41:42.924Z,74.03
2022-11-24T11:44:46.604Z,73.82
2022-11-24T11:47:38.961Z,74.28
2022-11-24T11:50:19.811Z,74.49
2022-11-24T11:53:03.085Z,74.36
2022-11-24T11:55:50.113Z,74.16
2022-11-24T11:58:57.651Z,74.59
2022-11-24T12:01:30.900Z,74.24
2022-11-24T12:04:23.144Z,74.83
2022-11-24T12:07:40.527Z,74.86
2022-11-24T12:10:32.039Z,74.92
2022-11-24T12:13:19.852Z,74.93
2022-11-24T12:15:52.577Z,74.88
2022-11-24T12:18:59.991Z,74.75
2022-11-24T12:21:49.958Z,74.69
2022-11-24T12:24:41.022Z,74.51
2022-11-24T12:27:26.380Z,74.43
2022-11-24T12:30:11.970Z,74.61
2022-11-24T12:33:13.461Z,74.89
2022-11-24T12:35:48.889Z,74.75
2022-11-24T12:38:40.911Z,74.89
2022-11-24T12:41:45.613Z,75.01
2022-11-24T12:44:54.406Z,74.76
2022-11-24T12:47:32.012Z,74.92
2022-11-24T12:50:14.144Z,75.20
2022-11-24T12:52:57.182Z,75.34
2022-11-24T12:55:30.525Z,75.29
2022-11-24T12:58:26.991Z,74.96
2022-11-24T13:01:16.946Z,75.34
2022-11-24T13:04:01.233Z,75.27
2022-11-24T13:10:54.110Z,75.84
2022-11-24T13:13:20.303Z,76.10
2022-11-24T13:19:03.741Z,76.21
2022-11-24T13:21:53.152Z,76.65
2022-11-24T13:24:33.163Z,77.46
2022-11-24T13:27:19.002Z,77.62
2022-11-24T13:29:54.089Z,77.97
2022-11-24T13:32:24.489Z,77.54
2022-11-24T13:34:57.608Z,77.58
2022-11-24T13:37:34.261Z,77.28
2022-11-24T13:40:15.588Z,77.66
2022-11-24T13:43:01.107Z,77.41
2022-11-24T13:45:50.070Z,77.29
2022-11-24T13:48:23.617Z,77.19
2022-11-24T13:50:54.142Z,77.30
2022-11-24T13:53:36.411Z,77.61
2022-11-24T13:56:12.353Z,77.58
2022-11-24T13:58:53.531Z,77.22
2022-11-24T14:01:30.869Z,77.21
2022-11-24T14:04:32.317Z,77.23
2022-11-24T14:07:14.849Z,77.25
2022-11-24T14:09:48.286Z,77.14
2022-11-24T14:12:27.445Z,77.41
2022-11-24T14:15:23.194Z,77.19
2022-11-24T14:17:53.620Z,77.20
2022-11-24T14:20:29.230Z,77.36
2022-11-24T14:22:59.479Z,76.99
2022-11-24T14:25:33.498Z,76.92
2022-11-24T14:28:04.075Z,76.92
2022-11-24T14:30:34.468Z,76.93
2022-11-24T14:33:06.669Z,77.05
2022-11-24T14:35:38.325Z,76.92
2022-11-24T14:38:09.015Z,77.35
2022-11-24T14:40:50.837Z,77.46
2022-11-24T14:43:27.170Z,77.45
2022-11-24T14:46:07.415Z,77.59
2022-11-24T14:48:55.894Z,77.60
2022-11-24T14:51:33.671Z,77.59
2022-11-24T14:54:16.258Z,77.85
2022-11-24T14:57:00.997Z,78.40
2022-11-24T14:59:33.958Z,78.28
2022-11-24T15:02:05.198Z,78.46
2022-11-24T15:07:29.822Z,78.72
2022-11-24T15:10:03.249Z,78.47
2022-11-24T15:12:41.640Z,78.28
2022-11-24T15:15:14.751Z,78.44
2022-11-24T15:17:56.696Z,78.43
2022-11-24T15:20:37.536Z,78.55
2022-11-24T15:23:27.211Z,78.57
2022-11-24T15:26:24.793Z,78.64
2022-11-24T15:28:57.633Z,77.79
2022-11-24T15:31:28.157Z,77.72
2022-11-24T15:33:58.478Z,76.84
2022-11-24T15:36:28.902Z,76.58
2022-11-24T15:38:59.330Z,76.78
2022-11-24T15:41:33.071Z,76.47
2022-11-24T15:44:05.281Z,76.73
2022-11-24T15:46:40.824Z,76.64
2022-11-24T15:49:11.337Z,77.52
2022-11-24T15:51:45.908Z,77.72
2022-11-24T15:54:21.465Z,77.27
2022-11-24T15:56:51.894Z,77.58
2022-11-24T15:59:22.422Z,77.43
2022-11-24T16:01:53.052Z,77.31
2022-11-24T16:04:23.504Z,77.35
2022-11-24T16:06:53.945Z,77.63
2022-11-24T16:09:24.353Z,77.51
2022-11-24T16:11:54.847Z,78.00
2022-11-24T16:14:26.810Z,77.71
2022-11-24T16:16:57.180Z,77.71
2022-11-24T16:19:29.263Z,78.21
2022-11-24T16:21:59.593Z,77.71
2022-11-24T16:24:29.937Z,78.02
2022-11-24T16:27:00.380Z,78.14
2022-11-24T16:29:35.341Z,77.56
2022-11-24T16:32:08.861Z,77.74
2022-11-24T16:34:39.278Z,78.05
2022-11-24T16:37:09.633Z,78.59
2022-11-24T16:39:40.029Z,78.15
2022-11-24T16:42:10.771Z,78.19
2022-11-24T16:44:41.070Z,77.92
2022-11-24T16:47:11.800Z,77.89
2022-11-24T16:49:42.065Z,77.92
2022-11-24T16:52:12.499Z,77.86
2022-11-24T16:54:43.011Z,77.86
2022-11-24T16:57:15.239Z,77.74
2022-11-24T16:59:48.242Z,77.73
2022-11-24T17:02:19.013Z,77.35
2022-11-24T17:04:49.446Z,77.72
2022-11-24T17:10:05.381Z,77.35
2022-11-24T17:12:38.622Z,77.68
2022-11-24T17:15:37.925Z,77.29
2022-11-24T17:18:28.363Z,77.63
2022-11-24T17:21:07.821Z,77.43
2022-11-24T17:23:59.854Z,77.28
2022-11-24T17:26:30.643Z,77.31
2022-11-24T17:29:01.326Z,77.26
2022-11-24T17:31:37.761Z,77.17
2022-11-24T17:34:10.118Z,77.93
2022-11-24T17:37:01.663Z,77.34
2022-11-24T17:39:31.915Z,77.72
2022-11-24T17:42:02.246Z,77.86
2022-11-24T17:44:33.056Z,77.58
2022-11-24T17:47:03.596Z,77.76
2022-11-24T17:49:33.887Z,77.74
2022-11-24T17:52:04.198Z,77.45
2022-11-24T17:54:49.735Z,77.70
2022-11-24T17:57:20.030Z,77.42
2022-11-24T17:59:50.375Z,77.44
2022-11-24T18:02:20.844Z,77.39
2022-11-24T18:04:52.106Z,77.30
2022-11-24T18:07:40.490Z,76.97
2022-11-24T18:10:28.850Z,76.98
2022-11-24T18:12:59.668Z,77.41
2022-11-24T18:15:29.875Z,77.41
2022-11-24T18:18:00.102Z,77.51
2022-11-24T18:20:31.249Z,76.94
2022-11-24T18:23:05.908Z,77.31
2022-11-24T18:25:39.352Z,77.12
2022-11-24T18:28:10.615Z,77.69
2022-11-24T18:30:40.815Z,77.53
2022-11-24T18:33:11.392Z,77.27
2022-11-24T18:35:43.197Z,77.75
2022-11-24T18:38:13.626Z,77.49
2022-11-24T18:40:44.116Z,77.52
2022-11-24T18:43:14.482Z,77.21
2022-11-24T18:45:44.603Z,77.24
2022-11-24T18:48:14.630Z,77.32
2022-11-24T18:50:45.491Z,77.58
2022-11-24T18:53:15.543Z,77.40
2022-11-24T18:55:46.087Z,77.29
2022-11-24T18:58:17.264Z,77.64
2022-11-24T19:00:47.732Z,77.21
2022-11-24T19:03:18.075Z,77.43
2022-11-24T19:05:48.443Z,77.51
2022-11-24T19:08:18.732Z,77.41
2022-11-24T19:10:49.764Z,77.31
2022-11-24T19:13:20.360Z,77.20
2022-11-24T19:15:51.724Z,77.99
2022-11-24T19:18:22.105Z,77.35
2022-11-24T19:20:52.488Z,77.21
2022-11-24T19:23:22.709Z,77.63
2022-11-24T19:25:52.963Z,77.27
2022-11-24T19:28:23.242Z,77.25
2022-11-24T19:30:53.544Z,77.37
2022-11-24T19:33:23.820Z,77.54
2022-11-24T19:36:05.631Z,77.42
2022-11-24T19:38:37.393Z,77.28
2022-11-24T19:41:13.260Z,77.44
2022-11-24T19:43:44.076Z,77.54
2022-11-24T19:46:16.184Z,77.70
2022-11-24T19:48:49.522Z,77.62
2022-11-24T19:51:23.808Z,77.35
2022-11-24T19:53:54.286Z,77.34
2022-11-24T19:56:26.626Z,77.46
2022-11-24T19:58:57.899Z,77.65
2022-11-24T20:01:33.692Z,77.51
2022-11-24T20:04:06.815Z,77.70
2022-11-24T20:06:42.184Z,77.56
2022-11-24T20:09:14.417Z,77.62
2022-11-24T20:11:45.256Z,77.56
2022-11-24T20:14:17.622Z,77.98
2022-11-24T20:16:49.850Z,77.60
2022-11-24T20:19:21.118Z,78.00
2022-11-24T20:21:52.442Z,77.55
2022-11-24T20:24:23.665Z,77.43
2022-11-24T20:26:58.540Z,77.78
2022-11-24T20:29:30.526Z,77.75
2022-11-24T20:32:00.859Z,78.26
2022-11-24T20:34:31.285Z,77.76
2022-11-24T20:37:01.555Z,77.56
2022-11-24T20:39:31.895Z,77.56
2022-11-24T20:42:01.928Z,77.63
2022-11-24T20:44:32.632Z,77.57
2022-11-24T20:47:05.063Z,77.58
2022-11-24T20:49:35.329Z,77.63
2022-11-24T20:52:05.656Z,77.54
2022-11-24T20:54:36.172Z,77.38
2022-11-24T20:57:06.661Z,77.81
2022-11-24T20:59:36.943Z,77.42
2022-11-24T21:02:07.289Z,77.78
2022-11-24T21:04:38.845Z,77.79
2022-11-24T21:07:09.254Z,77.46
2022-11-24T21:09:40.418Z,77.79
2022-11-24T21:12:10.666Z,77.69
2022-11-24T21:14:41.035Z,77.97
2022-11-24T21:17:11.425Z,77.80
2022-11-24T21:19:41.615Z,78.03
2022-11-24T21:22:11.710Z,77.82
2022-11-24T21:24:41.786Z,77.63
2022-11-24T21:27:11.867Z,78.03
2022-11-24T21:29:41.843Z,77.77
2022-11-24T21:32:13.156Z,78.01
2022-11-24T21:34:43.405Z,77.80
2022-11-24T21:37:13.700Z,78.07
2022-11-24T21:39:46.745Z,77.98
2022-11-24T21:42:17.107Z,78.24
2022-11-24T21:44:47.395Z,77.88
2022-11-24T21:47:17.480Z,77.87
2022-11-24T21:49:47.543Z,78.15
2022-11-24T21:52:18.159Z,78.28
2022-11-24T21:54:48.204Z,78.05
2022-11-24T21:57:18.463Z,78.16
2022-11-24T21:59:48.622Z,78.10
2022-11-24T22:02:18.979Z,78.25
2022-11-24T22:04:49.049Z,78.11
2022-11-24T22:07:19.610Z,78.62
2022-11-24T22:09:51.301Z,77.94
2022-11-24T22:12:21.349Z,78.64
2022-11-24T22:14:51.468Z,78.30
2022-11-24T22:17:21.720Z,78.26
2022-11-24T22:19:51.908Z,78.45
2022-11-24T22:22:22.382Z,78.61
2022-11-24T22:24:52.573Z,78.55
2022-11-24T22:27:23.050Z,79.05
2022-11-24T22:29:54.314Z,78.98
2022-11-24T22:32:24.697Z,78.97
2022-11-24T22:34:54.735Z,78.71
2022-11-24T22:37:25.041Z,79.00
2022-11-24T22:39:55.239Z,78.83
2022-11-24T22:42:25.872Z,78.87
2022-11-24T22:44:56.278Z,79.05
2022-11-24T22:47:26.311Z,79.04
2022-11-24T22:49:56.493Z,78.86
2022-11-24T22:54:57.947Z,78.02
